sensor_id;sensor_type;location;lat;lon;timestamp;temperature;humidity
18444;DHT22;9350;53.176;8.194;2022-12-08T00:01:04;3.20;99.90
18444;DHT22;9350;53.176;8.194;2022-12-08T00:03:30;3.20;99.90
18444;DHT22;9350;53.176;8.194;2022-12-08T00:05:57;3.20;99.90
18444;DHT22;9350;53.176;8.194;2022-12-08T00:08:41;3.20;99.90
18444;DHT22;9350;53.176;8.194;2022-12-08T00:11:26;3.20;99.90
18444;DHT22;9350;53.176;8.194;2022-12-08T00:13:54;3.20;99.90
18444;DHT22;9350;53.176;8.194;2022-12-08T00:16:20;3.30;99.90
18444;DHT22;9350;53.176;8.194;2022-12-08T00:18:47;3.30;99.90
18444;DHT22;9350;53.176;8.194;2022-12-08T00:21:14;3.30;99.90
18444;DHT22;9350;53.176;8.194;2022-12-08T00:23:41;3.30;99.90
18444;DHT22;9350;53.176;8.194;2022-12-08T00:26:08;3.30;99.90
18444;DHT22;9350;53.176;8.194;2022-12-08T00:28:36;3.20;99.90
18444;DHT22;9350;53.176;8.194;2022-12-08T00:31:08;3.20;99.90
18444;DHT22;9350;53.176;8.194;2022-12-08T00:33:36;3.30;99.90
18444;DHT22;9350;53.176;8.194;2022-12-08T00:36:05;3.30;99.90
18444;DHT22;9350;53.176;8.194;2022-12-08T00:38:33;3.20;99.90
18444;DHT22;9350;53.176;8.194;2022-12-08T00:41:00;3.20;99.90
18444;DHT22;9350;53.176;8.194;2022-12-08T00:43:27;3.20;99.90
18444;DHT22;9350;53.176;8.194;2022-12-08T00:45:53;3.30;99.90
18444;DHT22;9350;53.176;8.194;2022-12-08T00:48:21;3.20;99.90
18444;DHT22;9350;53.176;8.194;2022-12-08T00:50:48;3.20;99.90
18444;DHT22;9350;53.176;8.194;2022-12-08T00:53:15;3.20;99.90
18444;DHT22;9350;53.176;8.194;2022-12-08T00:55:42;3.20;99.90
18444;DHT22;9350;53.176;8.194;2022-12-08T00:58:09;3.30;99.90
18444;DHT22;9350;53.176;8.194;2022-12-08T01:00:35;3.30;99.90
18444;DHT22;9350;53.176;8.194;2022-12-08T01:03:02;3.30;99.90
18444;DHT22;9350;53.176;8.194;2022-12-08T01:05:31;3.40;99.90
18444;DHT22;9350;53.176;8.194;2022-12-08T01:07:58;3.40;99.90
18444;DHT22;9350;53.176;8.194;2022-12-08T01:10:25;3.30;99.90
18444;DHT22;9350;53.176;8.194;2022-12-08T01:12:52;3.40;99.90
18444;DHT22;9350;53.176;8.194;2022-12-08T01:15:19;3.40;99.90
18444;DHT22;9350;53.176;8.194;2022-12-08T01:17:45;3.40;99.90
18444;DHT22;9350;53.176;8.194;2022-12-08T01:20:12;3.30;99.90
18444;DHT22;9350;53.176;8.194;2022-12-08T01:22:40;3.40;99.90
18444;DHT22;9350;53.176;8.194;2022-12-08T01:25:08;3.40;99.90
18444;DHT22;9350;53.176;8.194;2022-12-08T01:27:34;3.40;99.90
18444;DHT22;9350;53.176;8.194;2022-12-08T01:30:01;3.40;99.90
18444;DHT22;9350;53.176;8.194;2022-12-08T01:32:28;3.40;99.90
18444;DHT22;9350;53.176;8.194;2022-12-08T01:34:55;3.30;99.90
18444;DHT22;9350;53.176;8.194;2022-12-08T01:37:21;3.30;99.90
18444;DHT22;9350;53.176;8.194;2022-12-08T01:39:50;3.30;99.90
18444;DHT22;9350;53.176;8.194;2022-12-08T01:42:19;3.40;99.90
18444;DHT22;9350;53.176;8.194;2022-12-08T01:44:58;3.40;99.90
18444;DHT22;9350;53.176;8.194;2022-12-08T01:47:31;3.50;99.90
18444;DHT22;9350;53.176;8.194;2022-12-08T01:49:59;3.50;99.90
18444;DHT22;9350;53.176;8.194;2022-12-08T01:52:31;3.50;99.90
18444;DHT22;9350;53.176;8.194;2022-12-08T01:55:02;3.50;99.90
18444;DHT22;9350;53.176;8.194;2022-12-08T01:57:32;3.50;99.90
18444;DHT22;9350;53.176;8.194;2022-12-08T02:00:03;3.50;99.90
18444;DHT22;9350;53.176;8.194;2022-12-08T02:02:35;3.40;99.90
18444;DHT22;9350;53.176;8.194;2022-12-08T02:05:05;3.50;99.90
18444;DHT22;9350;53.176;8.194;2022-12-08T02:07:32;3.50;99.90
18444;DHT22;9350;53.176;8.194;2022-12-08T02:10:01;3.50;99.90
18444;DHT22;9350;53.176;8.194;2022-12-08T02:12:28;3.50;99.90
18444;DHT22;9350;53.176;8.194;2022-12-08T02:14:55;3.50;99.90
18444;DHT22;9350;53.176;8.194;2022-12-08T02:17:31;3.60;99.90
18444;DHT22;9350;53.176;8.194;2022-12-08T02:20:25;3.50;99.90
18444;DHT22;9350;53.176;8.194;2022-12-08T02:23:00;3.50;99.90
18444;DHT22;9350;53.176;8.194;2022-12-08T02:25:39;3.50;99.90
18444;DHT22;9350;53.176;8.194;2022-12-08T02:28:19;3.60;99.90
18444;DHT22;9350;53.176;8.194;2022-12-08T02:30:52;3.50;99.90
18444;DHT22;9350;53.176;8.194;2022-12-08T02:33:44;3.50;99.90
18444;DHT22;9350;53.176;8.194;2022-12-08T02:36:15;3.50;99.90
18444;DHT22;9350;53.176;8.194;2022-12-08T02:38:49;3.50;99.90
18444;DHT22;9350;53.176;8.194;2022-12-08T02:41:27;3.40;99.90
18444;DHT22;9350;53.176;8.194;2022-12-08T02:43:59;3.50;99.90
18444;DHT22;9350;53.176;8.194;2022-12-08T02:46:32;3.50;99.90
18444;DHT22;9350;53.176;8.194;2022-12-08T02:49:03;3.50;99.90
18444;DHT22;9350;53.176;8.194;2022-12-08T02:51:29;3.50;99.90
18444;DHT22;9350;53.176;8.194;2022-12-08T02:53:56;3.50;99.90
18444;DHT22;9350;53.176;8.194;2022-12-08T02:56:38;3.50;99.90
18444;DHT22;9350;53.176;8.194;2022-12-08T02:59:21;3.50;99.90
18444;DHT22;9350;53.176;8.194;2022-12-08T03:02:06;3.50;99.90
18444;DHT22;9350;53.176;8.194;2022-12-08T03:04:42;3.50;99.90
18444;DHT22;9350;53.176;8.194;2022-12-08T03:07:16;3.50;99.90
18444;DHT22;9350;53.176;8.194;2022-12-08T03:09:50;3.50;99.90
18444;DHT22;9350;53.176;8.194;2022-12-08T03:12:23;3.50;99.90
18444;DHT22;9350;53.176;8.194;2022-12-08T03:14:53;3.40;99.90
18444;DHT22;9350;53.176;8.194;2022-12-08T03:17:24;3.50;99.90
18444;DHT22;9350;53.176;8.194;2022-12-08T03:19:53;3.50;99.90
18444;DHT22;9350;53.176;8.194;2022-12-08T03:22:24;3.50;99.90
18444;DHT22;9350;53.176;8.194;2022-12-08T03:24:53;3.40;99.90
18444;DHT22;9350;53.176;8.194;2022-12-08T03:27:22;3.40;99.90
18444;DHT22;9350;53.176;8.194;2022-12-08T03:29:52;3.40;99.90
18444;DHT22;9350;53.176;8.194;2022-12-08T03:32:22;3.40;99.90
18444;DHT22;9350;53.176;8.194;2022-12-08T03:34:53;3.40;99.90
18444;DHT22;9350;53.176;8.194;2022-12-08T03:37:22;3.40;99.90
18444;DHT22;9350;53.176;8.194;2022-12-08T03:39:48;3.40;99.90
18444;DHT22;9350;53.176;8.194;2022-12-08T03:42:15;3.50;99.90
18444;DHT22;9350;53.176;8.194;2022-12-08T03:44:42;3.50;99.90
18444;DHT22;9350;53.176;8.194;2022-12-08T03:47:09;3.50;99.90
18444;DHT22;9350;53.176;8.194;2022-12-08T03:49:36;3.50;99.90
18444;DHT22;9350;53.176;8.194;2022-12-08T03:52:04;3.50;99.90
18444;DHT22;9350;53.176;8.194;2022-12-08T03:54:31;3.50;99.90
18444;DHT22;9350;53.176;8.194;2022-12-08T03:56:57;3.50;99.90
18444;DHT22;9350;53.176;8.194;2022-12-08T03:59:24;3.50;99.90
18444;DHT22;9350;53.176;8.194;2022-12-08T04:01:51;3.40;99.90
18444;DHT22;9350;53.176;8.194;2022-12-08T04:04:18;3.40;99.90
18444;DHT22;9350;53.176;8.194;2022-12-08T04:06:44;3.40;99.90
18444;DHT22;9350;53.176;8.194;2022-12-08T04:09:13;3.40;99.90
18444;DHT22;9350;53.176;8.194;2022-12-08T04:11:39;3.40;99.90
18444;DHT22;9350;53.176;8.194;2022-12-08T04:14:06;3.40;99.90
18444;DHT22;9350;53.176;8.194;2022-12-08T04:16:33;3.50;99.90
18444;DHT22;9350;53.176;8.194;2022-12-08T04:19:00;3.50;99.90
18444;DHT22;9350;53.176;8.194;2022-12-08T04:21:28;3.50;99.90
18444;DHT22;9350;53.176;8.194;2022-12-08T04:23:54;3.50;99.90
18444;DHT22;9350;53.176;8.194;2022-12-08T04:26:22;3.50;99.90
18444;DHT22;9350;53.176;8.194;2022-12-08T04:28:49;3.50;99.90
18444;DHT22;9350;53.176;8.194;2022-12-08T04:31:16;3.50;99.90
18444;DHT22;9350;53.176;8.194;2022-12-08T04:33:43;3.40;99.90
18444;DHT22;9350;53.176;8.194;2022-12-08T04:36:10;3.50;99.90
18444;DHT22;9350;53.176;8.194;2022-12-08T04:38:37;3.50;99.90
18444;DHT22;9350;53.176;8.194;2022-12-08T04:41:04;3.50;99.90
18444;DHT22;9350;53.176;8.194;2022-12-08T04:43:32;3.50;99.90
18444;DHT22;9350;53.176;8.194;2022-12-08T04:45:59;3.50;99.90
18444;DHT22;9350;53.176;8.194;2022-12-08T04:48:25;3.50;99.90
18444;DHT22;9350;53.176;8.194;2022-12-08T04:50:52;3.50;99.90
18444;DHT22;9350;53.176;8.194;2022-12-08T04:53:19;3.50;99.90
18444;DHT22;9350;53.176;8.194;2022-12-08T04:55:47;3.50;99.90
18444;DHT22;9350;53.176;8.194;2022-12-08T04:58:15;3.50;99.90
18444;DHT22;9350;53.176;8.194;2022-12-08T05:00:45;3.50;99.90
18444;DHT22;9350;53.176;8.194;2022-12-08T05:03:13;3.50;99.90
18444;DHT22;9350;53.176;8.194;2022-12-08T05:05:41;3.50;99.90
18444;DHT22;9350;53.176;8.194;2022-12-08T05:08:09;3.40;99.90
18444;DHT22;9350;53.176;8.194;2022-12-08T05:10:36;3.40;99.90
18444;DHT22;9350;53.176;8.194;2022-12-08T05:13:03;3.40;99.90
18444;DHT22;9350;53.176;8.194;2022-12-08T05:15:30;3.40;99.90
18444;DHT22;9350;53.176;8.194;2022-12-08T05:17:58;3.50;99.90
18444;DHT22;9350;53.176;8.194;2022-12-08T05:20:25;3.50;99.90
18444;DHT22;9350;53.176;8.194;2022-12-08T05:22:51;3.40;99.90
18444;DHT22;9350;53.176;8.194;2022-12-08T05:25:18;3.50;99.90
18444;DHT22;9350;53.176;8.194;2022-12-08T05:27:45;3.40;99.90
18444;DHT22;9350;53.176;8.194;2022-12-08T05:30:13;3.40;99.90
18444;DHT22;9350;53.176;8.194;2022-12-08T05:32:40;3.40;99.90
18444;DHT22;9350;53.176;8.194;2022-12-08T05:35:09;3.50;99.90
18444;DHT22;9350;53.176;8.194;2022-12-08T05:37:36;3.50;99.90
18444;DHT22;9350;53.176;8.194;2022-12-08T05:40:03;3.50;99.90
18444;DHT22;9350;53.176;8.194;2022-12-08T05:42:30;3.50;99.90
18444;DHT22;9350;53.176;8.194;2022-12-08T05:44:56;3.50;99.90
18444;DHT22;9350;53.176;8.194;2022-12-08T05:47:23;3.40;99.90
18444;DHT22;9350;53.176;8.194;2022-12-08T05:49:50;3.40;99.90
18444;DHT22;9350;53.176;8.194;2022-12-08T05:52:18;3.50;99.90
18444;DHT22;9350;53.176;8.194;2022-12-08T05:54:44;3.30;99.90
18444;DHT22;9350;53.176;8.194;2022-12-08T05:57:11;3.40;99.90
18444;DHT22;9350;53.176;8.194;2022-12-08T05:59:38;3.40;99.90
18444;DHT22;9350;53.176;8.194;2022-12-08T06:02:05;3.40;99.90
18444;DHT22;9350;53.176;8.194;2022-12-08T06:04:33;3.30;99.90
18444;DHT22;9350;53.176;8.194;2022-12-08T06:06:59;3.30;99.90
18444;DHT22;9350;53.176;8.194;2022-12-08T06:09:27;3.30;99.90
18444;DHT22;9350;53.176;8.194;2022-12-08T06:11:54;3.30;99.90
18444;DHT22;9350;53.176;8.194;2022-12-08T06:14:21;3.40;99.90
18444;DHT22;9350;53.176;8.194;2022-12-08T06:16:47;3.40;99.90
18444;DHT22;9350;53.176;8.194;2022-12-08T06:19:14;3.40;99.90
18444;DHT22;9350;53.176;8.194;2022-12-08T06:21:41;3.30;99.90
18444;DHT22;9350;53.176;8.194;2022-12-08T06:24:08;3.40;99.90
18444;DHT22;9350;53.176;8.194;2022-12-08T06:26:37;3.40;99.90
18444;DHT22;9350;53.176;8.194;2022-12-08T06:29:05;3.40;99.90
18444;DHT22;9350;53.176;8.194;2022-12-08T06:31:32;3.40;99.90
18444;DHT22;9350;53.176;8.194;2022-12-08T06:33:59;3.40;99.90
18444;DHT22;9350;53.176;8.194;2022-12-08T06:36:26;3.30;99.90
18444;DHT22;9350;53.176;8.194;2022-12-08T06:38:53;3.30;99.90
18444;DHT22;9350;53.176;8.194;2022-12-08T06:41:20;3.30;99.90
18444;DHT22;9350;53.176;8.194;2022-12-08T06:43:48;3.40;99.90
18444;DHT22;9350;53.176;8.194;2022-12-08T06:46:16;3.30;99.90
18444;DHT22;9350;53.176;8.194;2022-12-08T06:48:44;3.30;99.90
18444;DHT22;9350;53.176;8.194;2022-12-08T06:51:13;3.30;99.90
18444;DHT22;9350;53.176;8.194;2022-12-08T06:53:41;3.30;99.90
18444;DHT22;9350;53.176;8.194;2022-12-08T06:56:09;3.20;99.90
18444;DHT22;9350;53.176;8.194;2022-12-08T06:58:36;3.20;99.90
18444;DHT22;9350;53.176;8.194;2022-12-08T07:01:06;3.20;99.90
18444;DHT22;9350;53.176;8.194;2022-12-08T07:03:33;3.20;99.90
18444;DHT22;9350;53.176;8.194;2022-12-08T07:06:00;3.20;99.90
18444;DHT22;9350;53.176;8.194;2022-12-08T07:08:27;3.10;99.90
18444;DHT22;9350;53.176;8.194;2022-12-08T07:10:53;3.10;99.90
18444;DHT22;9350;53.176;8.194;2022-12-08T07:13:20;3.20;99.90
18444;DHT22;9350;53.176;8.194;2022-12-08T07:15:47;3.10;99.90
18444;DHT22;9350;53.176;8.194;2022-12-08T07:18:15;3.10;99.90
18444;DHT22;9350;53.176;8.194;2022-12-08T07:20:43;3.20;99.90
18444;DHT22;9350;53.176;8.194;2022-12-08T07:23:09;3.20;99.90
18444;DHT22;9350;53.176;8.194;2022-12-08T07:25:36;3.10;99.90
18444;DHT22;9350;53.176;8.194;2022-12-08T07:28:07;3.10;99.90
18444;DHT22;9350;53.176;8.194;2022-12-08T07:30:34;3.00;99.90
18444;DHT22;9350;53.176;8.194;2022-12-08T07:33:01;3.10;99.90
18444;DHT22;9350;53.176;8.194;2022-12-08T07:35:30;3.00;99.90
18444;DHT22;9350;53.176;8.194;2022-12-08T07:37:57;3.10;99.90
18444;DHT22;9350;53.176;8.194;2022-12-08T07:40:24;3.10;99.90
18444;DHT22;9350;53.176;8.194;2022-12-08T07:42:51;3.20;99.90
18444;DHT22;9350;53.176;8.194;2022-12-08T07:45:17;3.10;99.90
18444;DHT22;9350;53.176;8.194;2022-12-08T07:47:44;3.10;99.90
18444;DHT22;9350;53.176;8.194;2022-12-08T07:50:11;3.10;99.90
18444;DHT22;9350;53.176;8.194;2022-12-08T07:52:39;3.10;99.90
18444;DHT22;9350;53.176;8.194;2022-12-08T07:55:07;3.10;99.90
18444;DHT22;9350;53.176;8.194;2022-12-08T07:57:33;3.10;99.90
18444;DHT22;9350;53.176;8.194;2022-12-08T08:00:00;3.10;99.90
18444;DHT22;9350;53.176;8.194;2022-12-08T08:02:27;3.10;99.90
18444;DHT22;9350;53.176;8.194;2022-12-08T08:04:54;3.10;99.90
18444;DHT22;9350;53.176;8.194;2022-12-08T08:07:21;3.00;99.90
18444;DHT22;9350;53.176;8.194;2022-12-08T08:09:49;3.00;99.90
18444;DHT22;9350;53.176;8.194;2022-12-08T08:12:16;3.00;99.90
18444;DHT22;9350;53.176;8.194;2022-12-08T08:14:42;3.00;99.90
18444;DHT22;9350;53.176;8.194;2022-12-08T08:17:09;3.00;99.90
18444;DHT22;9350;53.176;8.194;2022-12-08T08:19:36;3.00;99.90
18444;DHT22;9350;53.176;8.194;2022-12-08T08:22:03;3.00;99.90
18444;DHT22;9350;53.176;8.194;2022-12-08T08:24:30;3.00;99.90
18444;DHT22;9350;53.176;8.194;2022-12-08T08:26:58;3.00;99.90
18444;DHT22;9350;53.176;8.194;2022-12-08T08:29:25;2.90;99.90
18444;DHT22;9350;53.176;8.194;2022-12-08T08:31:52;2.90;99.90
18444;DHT22;9350;53.176;8.194;2022-12-08T08:34:18;2.90;99.90
18444;DHT22;9350;53.176;8.194;2022-12-08T08:36:45;2.90;99.90
18444;DHT22;9350;53.176;8.194;2022-12-08T08:39:12;2.90;99.90
18444;DHT22;9350;53.176;8.194;2022-12-08T08:41:39;2.90;99.90
18444;DHT22;9350;53.176;8.194;2022-12-08T08:44:07;2.80;99.90
18444;DHT22;9350;53.176;8.194;2022-12-08T08:46:34;2.80;99.90
18444;DHT22;9350;53.176;8.194;2022-12-08T08:49:00;2.80;99.90
18444;DHT22;9350;53.176;8.194;2022-12-08T08:51:27;2.80;99.90
18444;DHT22;9350;53.176;8.194;2022-12-08T08:53:54;2.80;99.90
18444;DHT22;9350;53.176;8.194;2022-12-08T08:56:21;2.70;99.90
18444;DHT22;9350;53.176;8.194;2022-12-08T08:58:49;2.80;99.90
18444;DHT22;9350;53.176;8.194;2022-12-08T09:01:19;2.70;99.90
18444;DHT22;9350;53.176;8.194;2022-12-08T09:03:46;2.70;99.90
18444;DHT22;9350;53.176;8.194;2022-12-08T09:06:14;2.70;99.90
18444;DHT22;9350;53.176;8.194;2022-12-08T09:08:41;2.70;99.90
18444;DHT22;9350;53.176;8.194;2022-12-08T09:11:09;2.70;99.90
18444;DHT22;9350;53.176;8.194;2022-12-08T09:13:36;2.70;99.90
18444;DHT22;9350;53.176;8.194;2022-12-08T09:16:05;2.70;99.90
18444;DHT22;9350;53.176;8.194;2022-12-08T09:18:33;2.70;99.90
18444;DHT22;9350;53.176;8.194;2022-12-08T09:21:03;2.70;99.90
18444;DHT22;9350;53.176;8.194;2022-12-08T09:23:30;2.80;99.90
18444;DHT22;9350;53.176;8.194;2022-12-08T09:25:57;2.90;99.90
18444;DHT22;9350;53.176;8.194;2022-12-08T09:28:24;3.00;99.90
18444;DHT22;9350;53.176;8.194;2022-12-08T09:30:51;3.00;99.90
18444;DHT22;9350;53.176;8.194;2022-12-08T09:33:17;3.00;99.90
18444;DHT22;9350;53.176;8.194;2022-12-08T09:35:45;3.10;99.90
18444;DHT22;9350;53.176;8.194;2022-12-08T09:38:12;3.10;99.90
18444;DHT22;9350;53.176;8.194;2022-12-08T09:40:45;3.20;99.90
18444;DHT22;9350;53.176;8.194;2022-12-08T09:43:22;3.20;99.90
18444;DHT22;9350;53.176;8.194;2022-12-08T09:45:50;3.20;99.90
18444;DHT22;9350;53.176;8.194;2022-12-08T09:48:18;3.20;99.90
18444;DHT22;9350;53.176;8.194;2022-12-08T09:50:52;3.20;99.90
18444;DHT22;9350;53.176;8.194;2022-12-08T09:53:22;3.20;99.90
18444;DHT22;9350;53.176;8.194;2022-12-08T09:55:52;3.30;99.90
18444;DHT22;9350;53.176;8.194;2022-12-08T09:58:26;3.30;99.90
18444;DHT22;9350;53.176;8.194;2022-12-08T10:00:55;3.20;99.90
18444;DHT22;9350;53.176;8.194;2022-12-08T10:03:28;3.30;99.90
18444;DHT22;9350;53.176;8.194;2022-12-08T10:06:04;3.30;99.90
18444;DHT22;9350;53.176;8.194;2022-12-08T10:08:42;3.30;99.90
18444;DHT22;9350;53.176;8.194;2022-12-08T10:11:13;3.30;99.90
18444;DHT22;9350;53.176;8.194;2022-12-08T10:13:46;3.30;99.90
18444;DHT22;9350;53.176;8.194;2022-12-08T10:16:23;3.30;99.90
18444;DHT22;9350;53.176;8.194;2022-12-08T10:18:59;3.40;99.90
18444;DHT22;9350;53.176;8.194;2022-12-08T10:21:29;3.40;99.90
18444;DHT22;9350;53.176;8.194;2022-12-08T10:23:59;3.40;99.90
18444;DHT22;9350;53.176;8.194;2022-12-08T10:26:27;3.50;99.90
18444;DHT22;9350;53.176;8.194;2022-12-08T10:28:57;3.40;99.90
18444;DHT22;9350;53.176;8.194;2022-12-08T10:31:26;3.50;99.90
18444;DHT22;9350;53.176;8.194;2022-12-08T10:33:57;3.70;99.90
18444;DHT22;9350;53.176;8.194;2022-12-08T10:36:43;3.60;99.90
18444;DHT22;9350;53.176;8.194;2022-12-08T10:39:29;3.70;99.90
18444;DHT22;9350;53.176;8.194;2022-12-08T10:42:00;3.80;99.90
18444;DHT22;9350;53.176;8.194;2022-12-08T10:44:28;3.80;99.90
18444;DHT22;9350;53.176;8.194;2022-12-08T10:46:55;3.80;99.90
18444;DHT22;9350;53.176;8.194;2022-12-08T10:49:26;3.80;99.90
18444;DHT22;9350;53.176;8.194;2022-12-08T10:51:58;3.80;99.90
18444;DHT22;9350;53.176;8.194;2022-12-08T10:54:27;3.80;99.90
18444;DHT22;9350;53.176;8.194;2022-12-08T10:56:56;3.90;99.90
18444;DHT22;9350;53.176;8.194;2022-12-08T10:59:22;3.80;99.90
18444;DHT22;9350;53.176;8.194;2022-12-08T11:01:51;3.90;99.90
18444;DHT22;9350;53.176;8.194;2022-12-08T11:04:19;3.80;99.90
18444;DHT22;9350;53.176;8.194;2022-12-08T11:06:48;3.90;99.90
18444;DHT22;9350;53.176;8.194;2022-12-08T11:09:30;3.90;99.90
18444;DHT22;9350;53.176;8.194;2022-12-08T11:11:59;3.80;99.90
18444;DHT22;9350;53.176;8.194;2022-12-08T11:14:44;3.90;99.90
18444;DHT22;9350;53.176;8.194;2022-12-08T11:17:13;3.90;99.90
18444;DHT22;9350;53.176;8.194;2022-12-08T11:19:42;3.90;99.90
18444;DHT22;9350;53.176;8.194;2022-12-08T11:22:21;3.90;99.90
18444;DHT22;9350;53.176;8.194;2022-12-08T11:24:58;3.90;99.90
18444;DHT22;9350;53.176;8.194;2022-12-08T11:27:26;3.90;99.90
18444;DHT22;9350;53.176;8.194;2022-12-08T11:29:53;3.90;99.90
18444;DHT22;9350;53.176;8.194;2022-12-08T11:32:20;3.90;99.90
18444;DHT22;9350;53.176;8.194;2022-12-08T11:34:52;3.80;99.90
18444;DHT22;9350;53.176;8.194;2022-12-08T11:37:24;3.90;99.90
18444;DHT22;9350;53.176;8.194;2022-12-08T11:39:54;3.90;99.90
18444;DHT22;9350;53.176;8.194;2022-12-08T11:42:27;3.90;99.90
18444;DHT22;9350;53.176;8.194;2022-12-08T11:44:57;3.90;99.90
18444;DHT22;9350;53.176;8.194;2022-12-08T11:47:29;3.90;99.90
18444;DHT22;9350;53.176;8.194;2022-12-08T11:50:02;3.90;99.90
18444;DHT22;9350;53.176;8.194;2022-12-08T11:52:44;3.90;99.90
18444;DHT22;9350;53.176;8.194;2022-12-08T11:55:24;3.80;99.90
18444;DHT22;9350;53.176;8.194;2022-12-08T11:57:53;3.80;99.90
18444;DHT22;9350;53.176;8.194;2022-12-08T12:00:22;3.80;99.90
18444;DHT22;9350;53.176;8.194;2022-12-08T12:02:53;3.80;99.90
18444;DHT22;9350;53.176;8.194;2022-12-08T12:05:29;3.80;99.90
18444;DHT22;9350;53.176;8.194;2022-12-08T12:08:07;3.80;99.90
18444;DHT22;9350;53.176;8.194;2022-12-08T12:10:51;3.80;99.90
18444;DHT22;9350;53.176;8.194;2022-12-08T12:13:40;3.80;99.90
18444;DHT22;9350;53.176;8.194;2022-12-08T12:16:40;3.80;99.90
18444;DHT22;9350;53.176;8.194;2022-12-08T12:19:15;3.80;99.90
18444;DHT22;9350;53.176;8.194;2022-12-08T12:21:44;3.90;99.90
18444;DHT22;9350;53.176;8.194;2022-12-08T12:24:16;3.90;99.90
18444;DHT22;9350;53.176;8.194;2022-12-08T12:26:53;3.90;99.90
18444;DHT22;9350;53.176;8.194;2022-12-08T12:29:24;3.90;99.90
18444;DHT22;9350;53.176;8.194;2022-12-08T12:31:54;4.00;99.90
18444;DHT22;9350;53.176;8.194;2022-12-08T12:34:24;4.00;99.90
18444;DHT22;9350;53.176;8.194;2022-12-08T12:36:54;4.00;99.90
18444;DHT22;9350;53.176;8.194;2022-12-08T12:39:25;3.90;99.90
18444;DHT22;9350;53.176;8.194;2022-12-08T12:41:55;4.00;99.90
18444;DHT22;9350;53.176;8.194;2022-12-08T12:44:39;4.10;99.90
18444;DHT22;9350;53.176;8.194;2022-12-08T12:47:12;4.10;99.90
18444;DHT22;9350;53.176;8.194;2022-12-08T12:52:44;4.20;99.90
18444;DHT22;9350;53.176;8.194;2022-12-08T12:58:36;4.10;99.90
18444;DHT22;9350;53.176;8.194;2022-12-08T13:04:09;4.20;99.90
18444;DHT22;9350;53.176;8.194;2022-12-08T13:06:40;4.10;99.90
18444;DHT22;9350;53.176;8.194;2022-12-08T13:09:19;4.10;99.90
18444;DHT22;9350;53.176;8.194;2022-12-08T13:11:49;4.10;99.90
18444;DHT22;9350;53.176;8.194;2022-12-08T13:14:34;4.10;99.90
18444;DHT22;9350;53.176;8.194;2022-12-08T13:17:06;4.10;99.90
18444;DHT22;9350;53.176;8.194;2022-12-08T13:19:36;4.00;99.90
18444;DHT22;9350;53.176;8.194;2022-12-08T13:25:49;4.00;99.90
18444;DHT22;9350;53.176;8.194;2022-12-08T13:28:19;4.00;99.90
18444;DHT22;9350;53.176;8.194;2022-12-08T13:30:47;4.10;99.90
18444;DHT22;9350;53.176;8.194;2022-12-08T13:33:17;4.00;99.90
18444;DHT22;9350;53.176;8.194;2022-12-08T13:35:55;4.00;99.90
18444;DHT22;9350;53.176;8.194;2022-12-08T13:38:28;4.00;99.90
18444;DHT22;9350;53.176;8.194;2022-12-08T13:41:00;4.00;99.90
18444;DHT22;9350;53.176;8.194;2022-12-08T13:43:35;4.10;99.90
18444;DHT22;9350;53.176;8.194;2022-12-08T13:46:05;4.00;99.90
18444;DHT22;9350;53.176;8.194;2022-12-08T13:48:39;4.10;99.90
18444;DHT22;9350;53.176;8.194;2022-12-08T13:51:14;4.00;99.90
18444;DHT22;9350;53.176;8.194;2022-12-08T13:53:44;4.00;99.90
18444;DHT22;9350;53.176;8.194;2022-12-08T13:56:14;4.00;99.90
18444;DHT22;9350;53.176;8.194;2022-12-08T13:58:42;4.10;99.90
18444;DHT22;9350;53.176;8.194;2022-12-08T14:01:12;3.90;99.90
18444;DHT22;9350;53.176;8.194;2022-12-08T14:03:48;3.90;99.90
18444;DHT22;9350;53.176;8.194;2022-12-08T14:06:18;3.80;99.90
18444;DHT22;9350;53.176;8.194;2022-12-08T14:08:47;3.80;99.90
18444;DHT22;9350;53.176;8.194;2022-12-08T14:11:24;3.80;99.90
18444;DHT22;9350;53.176;8.194;2022-12-08T14:14:00;3.80;99.90
18444;DHT22;9350;53.176;8.194;2022-12-08T14:16:28;3.70;99.90
18444;DHT22;9350;53.176;8.194;2022-12-08T14:19:04;3.70;99.90
18444;DHT22;9350;53.176;8.194;2022-12-08T14:21:31;3.60;99.90
18444;DHT22;9350;53.176;8.194;2022-12-08T14:24:00;3.60;99.90
18444;DHT22;9350;53.176;8.194;2022-12-08T14:26:32;3.50;99.90
18444;DHT22;9350;53.176;8.194;2022-12-08T14:28:59;3.50;99.90
18444;DHT22;9350;53.176;8.194;2022-12-08T14:31:27;3.50;99.90
18444;DHT22;9350;53.176;8.194;2022-12-08T14:33:55;3.50;99.90
18444;DHT22;9350;53.176;8.194;2022-12-08T14:36:22;3.40;99.90
18444;DHT22;9350;53.176;8.194;2022-12-08T14:38:55;3.40;99.90
18444;DHT22;9350;53.176;8.194;2022-12-08T14:41:32;3.30;99.90
18444;DHT22;9350;53.176;8.194;2022-12-08T14:44:00;3.20;99.90
18444;DHT22;9350;53.176;8.194;2022-12-08T14:46:27;3.20;99.90
18444;DHT22;9350;53.176;8.194;2022-12-08T14:48:54;3.10;99.90
18444;DHT22;9350;53.176;8.194;2022-12-08T14:51:27;3.10;99.90
18444;DHT22;9350;53.176;8.194;2022-12-08T14:53:56;3.00;99.90
18444;DHT22;9350;53.176;8.194;2022-12-08T14:56:25;3.00;99.90
18444;DHT22;9350;53.176;8.194;2022-12-08T14:59:05;2.90;99.90
18444;DHT22;9350;53.176;8.194;2022-12-08T15:01:33;2.90;99.90
18444;DHT22;9350;53.176;8.194;2022-12-08T15:04:02;2.80;99.90
18444;DHT22;9350;53.176;8.194;2022-12-08T15:06:32;2.80;99.90
18444;DHT22;9350;53.176;8.194;2022-12-08T15:08:58;2.60;99.90
18444;DHT22;9350;53.176;8.194;2022-12-08T15:11:39;2.70;99.90
18444;DHT22;9350;53.176;8.194;2022-12-08T15:14:25;2.60;99.90
18444;DHT22;9350;53.176;8.194;2022-12-08T15:16:52;2.70;99.90
18444;DHT22;9350;53.176;8.194;2022-12-08T15:19:25;2.60;99.90
18444;DHT22;9350;53.176;8.194;2022-12-08T15:21:53;2.60;99.90
18444;DHT22;9350;53.176;8.194;2022-12-08T15:24:22;2.50;99.90
18444;DHT22;9350;53.176;8.194;2022-12-08T15:26:50;2.60;99.90
18444;DHT22;9350;53.176;8.194;2022-12-08T15:29:21;2.50;99.90
18444;DHT22;9350;53.176;8.194;2022-12-08T15:31:48;2.50;99.90
18444;DHT22;9350;53.176;8.194;2022-12-08T15:34:16;2.40;99.90
18444;DHT22;9350;53.176;8.194;2022-12-08T15:36:43;2.30;99.90
18444;DHT22;9350;53.176;8.194;2022-12-08T15:39:27;2.30;99.90
18444;DHT22;9350;53.176;8.194;2022-12-08T15:41:55;2.30;99.90
18444;DHT22;9350;53.176;8.194;2022-12-08T15:44:24;2.30;99.90
18444;DHT22;9350;53.176;8.194;2022-12-08T15:46:52;2.20;99.90
18444;DHT22;9350;53.176;8.194;2022-12-08T15:49:21;2.20;99.90
18444;DHT22;9350;53.176;8.194;2022-12-08T15:51:48;2.20;99.90
18444;DHT22;9350;53.176;8.194;2022-12-08T15:54:15;2.20;99.90
18444;DHT22;9350;53.176;8.194;2022-12-08T15:56:44;2.20;99.90
18444;DHT22;9350;53.176;8.194;2022-12-08T15:59:15;2.20;99.90
18444;DHT22;9350;53.176;8.194;2022-12-08T16:01:43;2.20;99.90
18444;DHT22;9350;53.176;8.194;2022-12-08T16:04:12;2.20;99.90
18444;DHT22;9350;53.176;8.194;2022-12-08T16:06:41;2.20;99.90
18444;DHT22;9350;53.176;8.194;2022-12-08T16:09:16;2.20;99.90
18444;DHT22;9350;53.176;8.194;2022-12-08T16:11:44;2.10;99.90
18444;DHT22;9350;53.176;8.194;2022-12-08T16:14:28;2.10;99.90
18444;DHT22;9350;53.176;8.194;2022-12-08T16:16:57;2.20;99.90
18444;DHT22;9350;53.176;8.194;2022-12-08T16:19:23;2.10;99.90
18444;DHT22;9350;53.176;8.194;2022-12-08T16:21:50;2.10;99.90
18444;DHT22;9350;53.176;8.194;2022-12-08T16:24:17;2.00;99.90
18444;DHT22;9350;53.176;8.194;2022-12-08T16:26:43;2.00;99.90
18444;DHT22;9350;53.176;8.194;2022-12-08T16:29:16;2.00;99.90
18444;DHT22;9350;53.176;8.194;2022-12-08T16:31:43;2.00;99.90